Westphalia, Missouri
Current Conditions -  °F | °C
As of 12:53 PM on Monday 22 Dec 2014 (Local Time) from KJEF Reporting Station
Light Rain Light Rain  
Wind Chill: 45°   Ceiling: 1300
Heat Index: 48°   Visibility: 8mi
Dew Point: 45°   Wind: 7mph
Humidity: 89%   Direction: 140°SE
Pressure: 29.55"   Gusts: NA
Location:  38.44°N, 92°W
Report Text: KJEF 221853Z 14006KT 8SM -RA FEW010 OVC013 09/07 A2955 RMK AO2 SLP997 P0002 T00890072
Loading
Personal Weather Stations






























Interactive Weather Map New forecast layout! Learn more

10-Day Weather Forecast

Advertisements
Track Severe Weather on mobile